KOEO/OEO METAR and TAF weather

Enter ICAO airport designator
Station Type Date Time Source
KOEO METAR 2022/06/27 16:55 UTC NOAA

KOEO 271655Z AUTO 00000KT 10SM CLR 24/10 A3028 RMK AO2 T02360103


Station Type Date Time Source
KOEO Decoded METAR 2022/06/27 16:55 UTC NOAA

Osceola, L O Simenstad Municipal Airport, WI, United States (KOEO) 45-18-31N 092-41-24W
Jun 27, 2022 - 12:55 PM EDT / 2022.06.27 1655 UTC
Wind: Calm:0
Visibility: 10 mile(s):0
Sky conditions: clear
Temperature: 74.5 F (23.6 C)
Dew Point: 50.5 F (10.3 C)
Relative Humidity: 42%
Pressure (altimeter): 30.28 in. Hg (1025 hPa)
ob: KOEO 271655Z AUTO 00000KT 10SM CLR 24/10 A3028 RMK AO2 T02360103
cycle: 17

Station Type Date Time Source
KOEO TAF UTC NOAA

Error!

Example: see airport list